createdAt,value
2023-11-12T00:01:28.877Z,6.57
2023-11-12T00:03:57.693Z,6.64
2023-11-12T00:06:24.895Z,6.58
2023-11-12T00:08:52.049Z,6.63
2023-11-12T00:11:20.285Z,6.53
2023-11-12T00:13:47.659Z,6.54
2023-11-12T00:16:15.051Z,6.64
2023-11-12T00:18:42.963Z,6.56
2023-11-12T00:21:10.223Z,6.43
2023-11-12T00:23:38.355Z,6.38
2023-11-12T00:26:05.627Z,6.44
2023-11-12T00:28:33.194Z,6.40
2023-11-12T00:31:00.323Z,6.43
2023-11-12T00:33:28.267Z,6.53
2023-11-12T00:35:55.896Z,6.36
2023-11-12T00:38:23.055Z,6.54
2023-11-12T00:40:50.169Z,6.53
2023-11-12T00:43:17.465Z,6.54
2023-11-12T00:45:44.824Z,6.73
2023-11-12T00:48:12.124Z,6.75
2023-11-12T00:50:39.754Z,6.78
2023-11-12T00:53:06.891Z,6.91
2023-11-12T00:55:34.059Z,6.95
2023-11-12T00:58:01.421Z,6.90
2023-11-12T01:00:28.606Z,6.74
2023-11-12T01:02:56.222Z,6.76
2023-11-12T01:05:23.595Z,6.72
2023-11-12T01:07:50.710Z,6.78
2023-11-12T01:10:17.877Z,6.76
2023-11-12T01:12:45.145Z,6.64
2023-11-12T01:15:16.778Z,6.72
2023-11-12T01:17:45.728Z,6.72
2023-11-12T01:20:18.244Z,6.69
2023-11-12T01:22:45.747Z,6.93
2023-11-12T01:25:13.812Z,6.90
2023-11-12T01:27:40.944Z,6.93
2023-11-12T01:30:08.766Z,6.73
2023-11-12T01:32:36.008Z,6.82
2023-11-12T01:35:04.567Z,6.90
2023-11-12T01:37:32.740Z,6.69
2023-11-12T01:39:59.847Z,6.83
2023-11-12T01:42:27.026Z,6.90
2023-11-12T01:44:54.348Z,6.94
2023-11-12T01:47:22.132Z,6.86
2023-11-12T01:49:49.608Z,6.75
2023-11-12T01:52:17.945Z,6.69
2023-11-12T01:54:45.168Z,6.82
2023-11-12T01:57:12.771Z,6.89
2023-11-12T01:59:40.037Z,7.06
2023-11-12T02:02:07.478Z,7.08
2023-11-12T02:04:34.627Z,7.07
2023-11-12T02:07:02.814Z,7.19
2023-11-12T02:09:30.274Z,7.01
2023-11-12T02:11:58.068Z,7.15
2023-11-12T02:14:26.978Z,6.97
2023-11-12T02:16:54.549Z,6.93
2023-11-12T02:19:25.192Z,6.85
2023-11-12T02:21:52.589Z,6.64
2023-11-12T02:24:20.111Z,6.35
2023-11-12T02:26:47.967Z,6.33
2023-11-12T02:29:16.678Z,6.58
2023-11-12T02:31:44.217Z,6.62
2023-11-12T02:34:12.003Z,6.44
2023-11-12T02:36:39.780Z,6.64
2023-11-12T02:39:10.861Z,6.65
2023-11-12T02:41:39.042Z,6.69
2023-11-12T02:44:09.685Z,6.82
2023-11-12T02:46:37.070Z,6.91
2023-11-12T02:49:08.320Z,7.20
2023-11-12T02:51:35.970Z,7.19
2023-11-12T02:54:04.434Z,7.25
2023-11-12T02:56:32.753Z,7.15
2023-11-12T02:59:00.535Z,7.19
2023-11-12T03:01:27.896Z,7.03
2023-11-12T03:03:55.691Z,6.98
2023-11-12T03:06:24.290Z,7.10
2023-11-12T03:08:51.485Z,7.02
2023-11-12T03:11:18.643Z,7.29
2023-11-12T03:13:45.856Z,7.24
2023-11-12T03:16:14.632Z,7.29
2023-11-12T03:18:45.683Z,7.08
2023-11-12T03:21:12.903Z,7.00
2023-11-12T03:23:40.494Z,7.18
2023-11-12T03:26:07.647Z,7.23
2023-11-12T03:28:34.775Z,7.42
2023-11-12T03:31:02.061Z,7.41
2023-11-12T03:33:30.122Z,7.48
2023-11-12T03:35:58.116Z,7.37
2023-11-12T03:38:26.406Z,7.35
2023-11-12T03:40:53.533Z,7.35
2023-11-12T03:43:21.119Z,7.25
2023-11-12T03:45:48.264Z,7.18
2023-11-12T03:48:15.490Z,6.99
2023-11-12T03:50:43.186Z,7.10
2023-11-12T03:53:10.279Z,6.88
2023-11-12T03:55:37.398Z,7.17
2023-11-12T03:58:05.294Z,7.28
2023-11-12T04:00:33.260Z,7.49
2023-11-12T04:03:00.655Z,7.48
2023-11-12T04:05:27.848Z,7.47
2023-11-12T04:07:55.287Z,7.42
2023-11-12T04:10:22.796Z,7.40
2023-11-12T04:12:50.064Z,7.48
2023-11-12T04:15:17.302Z,7.56
2023-11-12T04:17:45.742Z,7.53
2023-11-12T04:20:13.080Z,7.53
2023-11-12T04:22:42.370Z,7.60
2023-11-12T04:25:10.688Z,7.55
2023-11-12T04:27:39.228Z,7.56
2023-11-12T04:30:08.631Z,7.42
2023-11-12T04:32:36.788Z,7.62
2023-11-12T04:35:04.313Z,7.62
2023-11-12T04:37:31.436Z,7.57
2023-11-12T04:39:59.651Z,7.61
2023-11-12T04:42:27.628Z,7.48
2023-11-12T04:44:55.784Z,7.58
2023-11-12T04:47:23.075Z,7.59
2023-11-12T04:49:50.169Z,7.62
2023-11-12T04:52:17.561Z,7.67
2023-11-12T04:54:48.890Z,7.61
2023-11-12T04:57:16.024Z,7.49
2023-11-12T04:59:43.307Z,7.65
2023-11-12T05:02:14.394Z,7.71
2023-11-12T05:04:44.761Z,7.63
2023-11-12T05:07:11.845Z,7.75
2023-11-12T05:09:39.044Z,7.76
2023-11-12T05:12:06.458Z,7.90
2023-11-12T05:14:34.038Z,7.84
2023-11-12T05:17:01.158Z,7.87
2023-11-12T05:19:28.845Z,7.93
2023-11-12T05:21:56.043Z,7.94
2023-11-12T05:24:23.298Z,7.92
2023-11-12T05:26:50.509Z,7.94
2023-11-12T05:29:17.608Z,7.94
2023-11-12T05:31:44.884Z,7.93
2023-11-12T05:34:14.219Z,7.79
2023-11-12T05:36:41.812Z,7.83
2023-11-12T05:39:11.490Z,7.86
2023-11-12T05:41:38.554Z,7.88
2023-11-12T05:44:06.297Z,7.77
2023-11-12T05:46:33.522Z,7.59
2023-11-12T05:49:00.652Z,7.60
2023-11-12T05:51:28.459Z,7.74
2023-11-12T05:53:55.606Z,7.52
2023-11-12T05:56:22.782Z,7.37
2023-11-12T05:58:49.969Z,7.38
2023-11-12T06:01:18.731Z,7.42
2023-11-12T06:03:46.152Z,7.47
2023-11-12T06:06:16.001Z,7.50
2023-11-12T06:08:43.187Z,7.42
2023-11-12T06:11:10.336Z,7.30
2023-11-12T06:13:37.435Z,7.42
2023-11-12T06:16:05.397Z,7.39
2023-11-12T06:18:32.968Z,7.45
2023-11-12T06:21:00.494Z,7.45
2023-11-12T06:23:27.826Z,7.51
2023-11-12T06:25:54.983Z,7.60
2023-11-12T06:28:23.818Z,7.67
2023-11-12T06:30:52.334Z,7.70
2023-11-12T06:33:19.641Z,7.83
2023-11-12T06:35:47.539Z,7.80
2023-11-12T06:38:14.935Z,7.79
2023-11-12T06:40:42.123Z,7.76
2023-11-12T06:43:09.704Z,7.84
2023-11-12T06:45:36.828Z,7.97
2023-11-12T06:48:04.102Z,7.88
2023-11-12T06:50:31.370Z,8.00
2023-11-12T06:52:58.856Z,7.89
2023-11-12T06:55:26.521Z,8.00
2023-11-12T06:57:53.891Z,8.00
2023-11-12T07:00:21.070Z,8.14
2023-11-12T07:02:48.374Z,8.08
2023-11-12T07:05:17.970Z,8.08
2023-11-12T07:07:45.102Z,8.05
2023-11-12T07:10:13.487Z,8.09
2023-11-12T07:12:40.734Z,8.09
2023-11-12T07:15:08.300Z,8.10
2023-11-12T07:17:36.829Z,8.07
2023-11-12T07:20:04.422Z,7.97
2023-11-12T07:22:32.695Z,7.76
2023-11-12T07:25:01.476Z,7.68
2023-11-12T07:27:28.992Z,7.73
2023-11-12T07:29:56.089Z,7.91
2023-11-12T07:32:23.244Z,7.78
2023-11-12T07:34:50.421Z,7.87
2023-11-12T07:37:17.522Z,8.00
2023-11-12T07:39:44.643Z,7.96
2023-11-12T07:42:11.907Z,8.10
2023-11-12T07:44:39.885Z,8.26
2023-11-12T07:47:07.071Z,8.19
2023-11-12T07:49:34.208Z,8.16
2023-11-12T07:52:01.742Z,8.31
2023-11-12T07:54:28.976Z,8.35
2023-11-12T07:56:56.731Z,8.31
2023-11-12T07:59:24.653Z,8.49
2023-11-12T08:01:51.846Z,8.67
2023-11-12T08:04:19.109Z,8.55
2023-11-12T08:06:47.637Z,8.56
2023-11-12T08:09:15.541Z,8.71
2023-11-12T08:11:43.412Z,8.60
2023-11-12T08:14:10.750Z,8.72
2023-11-12T08:16:38.236Z,8.77
2023-11-12T08:19:07.173Z,8.73
2023-11-12T08:21:34.418Z,8.87
2023-11-12T08:24:01.919Z,8.95
2023-11-12T08:26:30.613Z,8.99
2023-11-12T08:28:58.590Z,9.13
2023-11-12T08:31:27.098Z,8.95
2023-11-12T08:33:54.559Z,9.10
2023-11-12T08:36:21.766Z,9.28
2023-11-12T08:38:49.004Z,9.39
2023-11-12T08:41:16.723Z,9.41
2023-11-12T08:43:46.064Z,9.48
2023-11-12T08:46:16.339Z,9.59
2023-11-12T08:48:47.110Z,9.48
2023-11-12T08:51:14.856Z,9.57
2023-11-12T08:53:42.091Z,9.58
2023-11-12T08:56:09.357Z,9.75
2023-11-12T08:58:37.073Z,9.74
2023-11-12T09:01:05.107Z,9.69
2023-11-12T09:03:32.904Z,9.85
2023-11-12T09:06:00.071Z,9.89
2023-11-12T09:08:27.333Z,9.92
2023-11-12T09:10:54.403Z,10.07
2023-11-12T09:13:21.714Z,10.27
2023-11-12T09:15:48.993Z,10.20
2023-11-12T09:18:16.566Z,9.97
2023-11-12T09:20:44.633Z,10.38
2023-11-12T09:23:11.764Z,9.98
2023-11-12T09:25:38.899Z,10.23
2023-11-12T09:28:09.283Z,10.18
2023-11-12T09:30:49.231Z,10.33
2023-11-12T09:33:24.632Z,10.20
2023-11-12T09:35:51.904Z,10.50
2023-11-12T09:38:19.027Z,10.80
2023-11-12T09:40:46.433Z,10.73
2023-11-12T09:43:13.941Z,10.79
2023-11-12T09:45:44.782Z,10.92
2023-11-12T09:48:18.616Z,10.80
2023-11-12T09:50:49.150Z,10.62
2023-11-12T09:53:18.356Z,10.73
2023-11-12T09:55:46.984Z,10.39
2023-11-12T09:58:14.230Z,10.52
2023-11-12T10:00:43.220Z,10.53
2023-11-12T10:03:10.496Z,10.71
2023-11-12T10:05:39.002Z,10.27
2023-11-12T10:08:06.564Z,10.13
2023-11-12T10:10:34.803Z,10.02
2023-11-12T10:13:05.424Z,9.97
2023-11-12T10:15:36.711Z,10.53
2023-11-12T10:18:05.322Z,10.20
2023-11-12T10:20:40.163Z,10.01
2023-11-12T10:23:30.429Z,10.29
2023-11-12T10:26:00.699Z,10.18
2023-11-12T10:28:33.938Z,10.10
2023-11-12T10:31:01.960Z,10.17
2023-11-12T10:33:29.326Z,10.18
2023-11-12T10:35:56.938Z,10.10
2023-11-12T10:38:25.006Z,10.19
2023-11-12T10:40:57.861Z,10.60
2023-11-12T10:43:25.435Z,10.61
2023-11-12T10:45:58.675Z,10.64
2023-11-12T10:48:34.758Z,11.05
2023-11-12T10:51:03.961Z,10.57
2023-11-12T10:53:32.868Z,10.48
2023-11-12T10:56:01.278Z,10.38
2023-11-12T10:58:29.627Z,10.70
2023-11-12T11:01:04.739Z,11.14
2023-11-12T11:03:34.181Z,10.90
2023-11-12T11:06:03.302Z,11.14
2023-11-12T11:08:35.653Z,11.10
2023-11-12T11:11:08.267Z,11.19
2023-11-12T11:13:37.958Z,10.47
2023-11-12T11:16:06.316Z,10.80
2023-11-12T11:18:33.790Z,10.64
2023-11-12T11:21:04.345Z,10.78
2023-11-12T11:23:38.253Z,11.07
2023-11-12T11:26:24.393Z,11.04
2023-11-12T11:29:05.837Z,10.92
2023-11-12T11:31:33.830Z,10.81
2023-11-12T11:34:02.076Z,10.66
2023-11-12T11:36:29.308Z,11.30
2023-11-12T11:39:23.230Z,11.26
2023-11-12T11:41:53.299Z,11.58
2023-11-12T11:44:50.981Z,12.07
2023-11-12T11:47:19.318Z,11.97
2023-11-12T11:49:58.853Z,11.74
2023-11-12T11:52:26.939Z,12.33
2023-11-12T11:55:09.150Z,12.06
2023-11-12T11:57:52.462Z,12.25
2023-11-12T12:00:19.998Z,12.03
2023-11-12T12:02:47.395Z,12.37
2023-11-12T12:05:28.309Z,12.05
2023-11-12T12:08:04.785Z,11.82
2023-11-12T12:10:33.451Z,12.04
2023-11-12T12:13:00.744Z,12.17
2023-11-12T12:15:28.414Z,11.59
2023-11-12T12:17:55.571Z,12.15
2023-11-12T12:20:22.873Z,11.97
2023-11-12T12:22:50.579Z,11.97
2023-11-12T12:25:17.635Z,11.45
2023-11-12T12:27:54.279Z,11.82
2023-11-12T12:30:21.849Z,11.94
2023-11-12T12:32:49.391Z,12.26
2023-11-12T12:35:24.174Z,11.68
2023-11-12T12:37:51.432Z,11.48
2023-11-12T12:40:29.976Z,12.04
2023-11-12T12:42:59.801Z,11.94
2023-11-12T12:45:27.072Z,11.98
2023-11-12T12:47:55.976Z,12.35
2023-11-12T12:50:27.458Z,12.39
2023-11-12T12:53:11.313Z,12.53
2023-11-12T12:55:38.577Z,13.02
2023-11-12T12:58:07.747Z,13.72
2023-11-12T13:00:37.124Z,12.66
2023-11-12T13:03:06.888Z,12.89
2023-11-12T13:05:34.793Z,12.99
2023-11-12T13:08:01.979Z,12.85
2023-11-12T13:10:29.604Z,12.93
2023-11-12T13:12:57.345Z,12.95
2023-11-12T13:15:26.428Z,12.33
2023-11-12T13:17:54.151Z,12.70
2023-11-12T13:20:25.626Z,12.90
2023-11-12T13:22:53.879Z,13.02
2023-11-12T13:25:21.201Z,13.15
2023-11-12T13:27:50.146Z,13.36
2023-11-12T13:30:17.853Z,13.27
2023-11-12T13:32:47.625Z,13.57
2023-11-12T13:35:14.911Z,14.26
2023-11-12T13:37:42.256Z,13.63
2023-11-12T13:40:15.550Z,13.17
2023-11-12T13:42:43.523Z,12.75
2023-11-12T13:45:11.611Z,12.57
2023-11-12T13:47:38.901Z,12.37
2023-11-12T13:50:11.786Z,12.83
2023-11-12T13:52:39.737Z,12.88
2023-11-12T13:55:08.415Z,12.70
2023-11-12T13:57:36.456Z,12.18
2023-11-12T14:00:10.635Z,12.39
2023-11-12T14:02:38.383Z,12.52
2023-11-12T14:05:12.494Z,13.27
2023-11-12T14:07:40.701Z,13.42
2023-11-12T14:10:10.601Z,12.64
2023-11-12T14:12:39.114Z,12.98
2023-11-12T14:15:10.208Z,13.13
2023-11-12T14:17:37.512Z,12.75
2023-11-12T14:20:07.925Z,12.71
2023-11-12T14:22:35.996Z,11.86
2023-11-12T14:25:08.653Z,11.42
2023-11-12T14:27:35.954Z,11.20
2023-11-12T14:30:08.075Z,10.93
2023-11-12T14:32:35.646Z,11.15
2023-11-12T14:35:03.589Z,11.16
2023-11-12T14:37:30.731Z,11.17
2023-11-12T14:39:59.770Z,11.22
2023-11-12T14:42:27.343Z,11.19
2023-11-12T14:44:54.698Z,11.29
2023-11-12T14:47:21.979Z,11.32
2023-11-12T14:49:49.901Z,11.10
2023-11-12T14:52:17.120Z,11.34
2023-11-12T14:54:45.204Z,11.19
2023-11-12T14:57:12.727Z,11.45
2023-11-12T14:59:41.184Z,11.45
2023-11-12T15:02:09.597Z,11.55
2023-11-12T15:04:37.021Z,11.44
2023-11-12T15:07:04.355Z,11.54
2023-11-12T15:09:31.577Z,11.22
2023-11-12T15:11:59.208Z,11.36
2023-11-12T15:14:26.412Z,11.08
2023-11-12T15:16:54.033Z,10.82
2023-11-12T15:19:21.480Z,10.80
2023-11-12T15:21:48.664Z,10.96
2023-11-12T15:24:16.209Z,10.82
2023-11-12T15:26:45.409Z,10.75
2023-11-12T15:29:13.116Z,10.86
2023-11-12T15:31:41.235Z,10.86
2023-11-12T15:34:11.832Z,10.45
2023-11-12T15:36:39.403Z,10.46
2023-11-12T15:39:09.520Z,10.42
2023-11-12T15:41:36.718Z,10.55
2023-11-12T15:44:03.910Z,10.54
2023-11-12T15:46:31.646Z,10.40
2023-11-12T15:48:59.884Z,10.36
2023-11-12T15:51:27.524Z,10.23
2023-11-12T15:53:54.636Z,10.18
2023-11-12T15:56:21.840Z,9.95
2023-11-12T15:58:50.577Z,10.18
2023-11-12T16:01:17.869Z,10.21
2023-11-12T16:03:45.278Z,10.27
2023-11-12T16:06:12.576Z,10.18
2023-11-12T16:08:49.183Z,10.15
2023-11-12T16:11:21.314Z,9.85
2023-11-12T16:13:48.504Z,9.94
2023-11-12T16:16:15.661Z,9.79
2023-11-12T16:18:43.259Z,9.85
2023-11-12T16:21:11.251Z,9.88
2023-11-12T16:23:38.449Z,9.86
2023-11-12T16:26:05.593Z,9.92
2023-11-12T16:28:33.267Z,9.40
2023-11-12T16:31:03.202Z,9.11
2023-11-12T16:33:32.132Z,8.98
2023-11-12T16:35:59.484Z,8.84
2023-11-12T16:38:26.867Z,8.90
2023-11-12T16:40:53.985Z,8.86
2023-11-12T16:43:21.083Z,9.00
2023-11-12T16:45:49.363Z,8.99
2023-11-12T16:48:16.476Z,8.95
2023-11-12T16:50:44.109Z,9.08
2023-11-12T16:53:11.257Z,8.98
2023-11-12T16:55:38.371Z,8.73
2023-11-12T16:58:06.532Z,8.80
2023-11-12T17:00:34.020Z,8.67
2023-11-12T17:03:02.197Z,8.64
2023-11-12T17:05:29.437Z,8.58
2023-11-12T17:07:56.596Z,8.68
2023-11-12T17:10:23.776Z,8.64
2023-11-12T17:12:52.133Z,8.52
2023-11-12T17:15:19.554Z,8.51
2023-11-12T17:17:49.409Z,8.54
2023-11-12T17:20:16.973Z,8.86
2023-11-12T17:22:44.384Z,8.79
2023-11-12T17:25:11.565Z,8.79
2023-11-12T17:27:39.188Z,8.88
2023-11-12T17:30:07.436Z,9.03
2023-11-12T17:32:35.686Z,8.64
2023-11-12T17:35:05.568Z,8.42
2023-11-12T17:37:33.043Z,8.37
2023-11-12T17:40:01.475Z,8.38
2023-11-12T17:42:32.083Z,8.70
2023-11-12T17:44:59.906Z,8.67
2023-11-12T17:47:27.105Z,8.87
2023-11-12T17:49:57.959Z,8.97
2023-11-12T17:52:25.323Z,8.95
2023-11-12T17:54:52.814Z,8.89
2023-11-12T17:57:21.745Z,8.98
2023-11-12T17:59:49.324Z,9.01
2023-11-12T18:02:16.413Z,9.01
2023-11-12T18:04:43.882Z,8.73
2023-11-12T18:07:11.340Z,8.56
2023-11-12T18:09:38.534Z,8.30
2023-11-12T18:12:06.287Z,8.11
2023-11-12T18:14:33.839Z,8.01
2023-11-12T18:17:01.181Z,7.99
2023-11-12T18:19:32.452Z,8.13
2023-11-12T18:22:00.126Z,8.20
2023-11-12T18:24:27.404Z,8.15
2023-11-12T18:26:57.508Z,8.05
2023-11-12T18:29:25.441Z,8.06
2023-11-12T18:32:02.121Z,7.97
2023-11-12T18:34:29.607Z,7.88
2023-11-12T18:36:57.560Z,7.86
2023-11-12T18:39:26.449Z,7.78
2023-11-12T18:41:54.872Z,7.76
2023-11-12T18:44:22.759Z,8.00
2023-11-12T18:46:49.958Z,8.23
2023-11-12T18:49:17.637Z,8.34
2023-11-12T18:51:45.368Z,8.38
2023-11-12T18:54:12.669Z,8.11
2023-11-12T18:56:40.142Z,8.22
2023-11-12T18:59:11.316Z,7.95
2023-11-12T19:01:41.131Z,7.72
2023-11-12T19:04:08.335Z,7.84
2023-11-12T19:06:38.792Z,7.89
2023-11-12T19:09:06.319Z,7.85
2023-11-12T19:11:33.532Z,7.80
2023-11-12T19:14:07.348Z,8.00
2023-11-12T19:16:34.940Z,8.10
2023-11-12T19:19:03.221Z,7.79
2023-11-12T19:21:34.326Z,7.71
2023-11-12T19:24:02.032Z,7.62
2023-11-12T19:26:29.206Z,7.61
2023-11-12T19:28:56.449Z,7.58
2023-11-12T19:31:30.712Z,7.55
2023-11-12T19:34:00.974Z,7.48
2023-11-12T19:36:28.622Z,7.52
2023-11-12T19:38:55.785Z,7.41
2023-11-12T19:41:24.579Z,7.41
2023-11-12T19:43:53.231Z,7.40
2023-11-12T19:46:20.578Z,7.45
2023-11-12T19:48:48.183Z,7.37
2023-11-12T19:51:15.754Z,7.32
2023-11-12T19:53:42.967Z,7.27
2023-11-12T19:56:10.101Z,7.33
2023-11-12T19:58:37.811Z,7.18
2023-11-12T20:01:05.423Z,7.22
2023-11-12T20:03:32.750Z,7.12
2023-11-12T20:06:02.681Z,7.07
2023-11-12T20:08:30.586Z,7.07
2023-11-12T20:10:57.744Z,7.09
2023-11-12T20:13:24.931Z,7.13
2023-11-12T20:15:53.822Z,7.26
2023-11-12T20:18:22.129Z,7.35
2023-11-12T20:20:49.326Z,7.22
2023-11-12T20:23:16.457Z,7.08
2023-11-12T20:25:43.986Z,7.05
2023-11-12T20:28:14.793Z,7.12
2023-11-12T20:30:45.380Z,7.07
2023-11-12T20:33:14.919Z,6.97
2023-11-12T20:35:42.553Z,6.94
2023-11-12T20:38:12.821Z,6.97
2023-11-12T20:40:40.519Z,7.05
2023-11-12T20:43:07.978Z,7.05
2023-11-12T20:45:35.431Z,6.96
2023-11-12T20:48:03.601Z,7.01
2023-11-12T20:50:36.735Z,7.20
2023-11-12T20:53:06.330Z,7.06
2023-11-12T20:55:33.647Z,7.06
2023-11-12T20:58:01.388Z,7.08
2023-11-12T21:00:29.519Z,7.03
2023-11-12T21:02:56.744Z,6.83
2023-11-12T21:05:23.933Z,6.76
2023-11-12T21:07:51.378Z,6.73
2023-11-12T21:10:19.078Z,6.71
2023-11-12T21:12:47.773Z,6.65
2023-11-12T21:15:16.155Z,6.80
2023-11-12T21:17:43.381Z,6.83
2023-11-12T21:20:13.033Z,6.78
2023-11-12T21:22:40.471Z,6.69
2023-11-12T21:25:10.899Z,6.91
2023-11-12T21:27:39.218Z,6.89
2023-11-12T21:30:06.897Z,6.78
2023-11-12T21:32:34.517Z,7.07
2023-11-12T21:35:03.203Z,6.89
2023-11-12T21:37:31.165Z,6.59
2023-11-12T21:39:58.458Z,6.49
2023-11-12T21:42:25.814Z,6.53
2023-11-12T21:44:52.916Z,6.28
2023-11-12T21:47:20.228Z,6.50
2023-11-12T21:49:47.841Z,6.83
2023-11-12T21:52:15.059Z,6.76
2023-11-12T21:54:42.690Z,6.91
2023-11-12T21:57:09.879Z,7.08
2023-11-12T21:59:37.016Z,6.95
2023-11-12T22:02:04.320Z,7.03
2023-11-12T22:04:31.639Z,6.93
2023-11-12T22:06:58.763Z,7.00
2023-11-12T22:09:26.042Z,6.83
2023-11-12T22:11:53.185Z,6.87
2023-11-12T22:14:20.679Z,6.89
2023-11-12T22:16:47.948Z,6.97
2023-11-12T22:19:15.308Z,6.91
2023-11-12T22:21:45.250Z,6.83
2023-11-12T22:24:12.437Z,6.85
2023-11-12T22:26:39.972Z,7.01
2023-11-12T22:29:07.802Z,7.03
2023-11-12T22:31:35.465Z,6.71
2023-11-12T22:34:02.953Z,6.55
2023-11-12T22:36:30.893Z,6.61
2023-11-12T22:38:58.342Z,6.14
2023-11-12T22:41:25.686Z,5.98
2023-11-12T22:43:52.877Z,5.99
2023-11-12T22:46:20.129Z,5.88
2023-11-12T22:48:48.875Z,6.04
2023-11-12T22:51:16.673Z,5.95
2023-11-12T22:53:43.992Z,6.18
2023-11-12T22:56:11.121Z,6.39
2023-11-12T22:58:38.919Z,6.40
2023-11-12T23:01:07.424Z,6.44
2023-11-12T23:03:34.808Z,6.33
2023-11-12T23:06:02.368Z,6.29
2023-11-12T23:08:29.608Z,6.36
2023-11-12T23:10:58.767Z,6.44
2023-11-12T23:13:28.275Z,6.40
2023-11-12T23:15:56.873Z,6.20
2023-11-12T23:18:24.199Z,6.29
2023-11-12T23:20:55.704Z,6.30
2023-11-12T23:23:32.175Z,6.25
2023-11-12T23:26:00.824Z,6.32
2023-11-12T23:28:28.147Z,6.34
2023-11-12T23:30:55.480Z,6.38
2023-11-12T23:33:23.613Z,6.30
2023-11-12T23:35:51.264Z,5.90
2023-11-12T23:38:18.433Z,6.12
2023-11-12T23:40:46.413Z,6.29
2023-11-12T23:43:13.595Z,6.19
2023-11-12T23:45:41.041Z,6.23
2023-11-12T23:48:09.025Z,6.29
2023-11-12T23:50:36.164Z,6.38
2023-11-12T23:53:04.312Z,6.26
2023-11-12T23:55:31.471Z,6.20
2023-11-12T23:58:01.781Z,6.07
